| time (UTC) | temp F | wind direction | speed knots | gust knots | rain 1hr in | rain 24hr in | rain mn in | humidity % | barometer mb |
| 20260503185536 | 67 | 70 | 2.6 | 10.4 | 0.00 | 0.02 | 0.01 | 40 | 1018.7 |
| 20260503185038 | 67 | 73 | 1.7 | 10.4 | 0.00 | 0.02 | 0.01 | 40 | 1018.6 |
| 20260503184604 | 67 | 131 | 1.7 | 10.4 | 0.00 | 0.02 | 0.01 | 39 | 1018.8 |
| 20260503184038 | 68 | 60 | 3.5 | 7.8 | 0.00 | 0.02 | 0.01 | 43 | 1018.8 |
| 20260503183539 | 67 | 46 | 1.7 | 4.3 | 0.00 | 0.02 | 0.01 | 48 | 1018.8 |
| 20260503183059 | 66 | 1 | 1.7 | 9.6 | 0.00 | 0.02 | 0.01 | 41 | 1018.9 |
| 20260503182540 | 66 | 141 | 1.7 | 9.6 | 0.00 | 0.02 | 0.01 | 42 | 1018.9 |
| 20260503182037 | 67 | 356 | 3.5 | 7.8 | 0.00 | 0.02 | 0.01 | 41 | 1018.9 |
| 20260503181601 | 67 | 360 | 2.6 | 7.8 | 0.00 | 0.02 | 0.01 | 40 | 1019.1 |
| 20260503181039 | 67 | 95 | 0.9 | 4.3 | 0.00 | 0.02 | 0.01 | 46 | 1019.1 |
| 20260503180536 | 67 | 116 | 0.9 | 5.2 | 0.00 | 0.02 | 0.01 | 42 | 1019.1 |
| 20260503180047 | 67 | 144 | 0.9 | 6.1 | 0.00 | 0.02 | 0.01 | 44 | 1019.1 |
| 20260503175540 | 66 | 81 | 0.9 | 6.1 | 0.00 | 0.02 | 0.01 | 45 | 1019.2 |
| 20260503175037 | 65 | 157 | 2.6 | 8.7 | 0.00 | 0.02 | 0.01 | 46 | 1019.2 |
| 20260503174551 | 65 | 158 | 2.6 | 8.7 | 0.00 | 0.02 | 0.01 | 41 | 1019.2 |
| 20260503174036 | 65 | 118 | 0.9 | 6.1 | 0.00 | 0.02 | 0.01 | 41 | 1019.2 |
| 20260503173536 | 66 | 71 | 0.9 | 6.1 | 0.00 | 0.02 | 0.01 | 44 | 1019.3 |
| 20260503173059 | 66 | 313 | 1.7 | 6.1 | 0.00 | 0.02 | 0.01 | 42 | 1019.3 |
| 20260503172543 | 65 | 111 | 1.7 | 5.2 | 0.00 | 0.02 | 0.01 | 47 | 1019.3 |
| 20260503172039 | 65 | 11 | 0.9 | 9.6 | 0.00 | 0.02 | 0.01 | 47 | 1019.4 |
| 20260503171549 | 65 | 107 | 1.7 | 9.6 | 0.00 | 0.02 | 0.01 | 45 | 1019.5 |
| 20260503171040 | 63 | 346 | 1.7 | 6.1 | 0.00 | 0.02 | 0.01 | 44 | 1019.8 |
| 20260503170540 | 64 | 68 | 1.7 | 10.4 | 0.00 | 0.02 | 0.01 | 47 | 1019.8 |
| 20260503150537 | 60 | 0 | 0.0 | 6.1 | 0.00 | 0.02 | 0.01 | 55 | 1020.7 |
| 20260503131036 | 52 | 4 | 2.6 | 7.0 | 0.00 | 0.02 | 0.01 | 69 | 1020.4 |
| 20260503130536 | 51 | 1 | 1.7 | 6.1 | 0.00 | 0.02 | 0.01 | 71 | 1020.5 |
| 20260503110536 | 37 | 0 | 0.0 | 0.0 | 0.00 | 0.01 | 0.00 | 91 | 1019.5 |
| 20260503081617 | 39 | 0 | 0.0 | 0.0 | 0.00 | 0.01 | 0.00 | 91 | 1017.5 |
| 20260503081040 | 39 | 0 | 0.0 | 0.0 | 0.00 | 0.01 | 0.00 | 90 | 1017.5 |
| 20260503080539 | 39 | 0 | 0.0 | 0.0 | 0.00 | 0.01 | 0.00 | 91 | 1017.4 |
| 20260503072541 | 40 | 0 | 0.0 | 0.0 | 0.00 | 0.01 | 0.00 | 90 | 1017.1 |
| 20260503072041 | 40 | 0 | 0.0 | 0.0 | 0.00 | 0.01 | 0.00 | 90 | 1017.0 |
| 20260503071549 | 40 | 0 | 0.0 | 0.0 | 0.00 | 0.01 | 0.00 | 90 | 1016.9 |
| 20260503071040 | 40 | 0 | 0.0 | 0.0 | 0.00 | 0.01 | 0.00 | 90 | 1016.8 |
| 20260503070540 | 40 | 0 | 0.0 | 0.0 | 0.00 | 0.01 | 0.00 | 90 | 1016.8 |
| 20260503055041 | 42 | 0 | 0.0 | 0.0 | 0.00 | 0.01 | 0.00 | 90 | 1016.6 |
| 20260503054550 | 42 | 0 | 0.0 | 0.0 | 0.00 | 0.01 | 0.00 | 89 | 1016.5 |
| 20260503054038 | 42 | 0 | 0.0 | 0.0 | 0.00 | 0.01 | 0.00 | 89 | 1016.5 |
| 20260503053538 | 42 | 0 | 0.0 | 0.0 | 0.00 | 0.01 | 0.00 | 89 | 1016.5 |
| 20260503053044 | 43 | 0 | 0.0 | 0.0 | 0.00 | 0.01 | 0.00 | 89 | 1016.5 |
| 20260503052538 | 43 | 0 | 0.0 | 0.0 | 0.00 | 0.01 | 0.00 | 89 | 1016.4 |
| 20260503052039 | 43 | 0 | 0.0 | 0.0 | 0.00 | 0.01 | 0.00 | 89 | 1016.4 |
| 20260503051559 | 43 | 0 | 0.0 | 0.0 | 0.00 | 0.01 | 0.00 | 90 | 1016.3 |
| 20260503051037 | 43 | 0 | 0.0 | 0.0 | 0.00 | 0.01 | 0.00 | 89 | 1016.4 |
| 20260503050539 | 43 | 0 | 0.0 | 0.9 | 0.00 | 0.01 | 0.00 | 90 | 1016.3 |
| 20260503050048 | 43 | 0 | 0.0 | 0.9 | 0.00 | 0.01 | 0.00 | 89 | 1016.3 |
| 20260503045539 | 44 | 0 | 0.0 | 0.9 | 0.00 | 0.02 | 0.00 | 89 | 1016.4 |
| 20260503045038 | 44 | 0 | 0.0 | 0.0 | 0.00 | 0.02 | 0.00 | 89 | 1016.3 |
| 20260503044549 | 44 | 0 | 0.0 | 0.0 | 0.00 | 0.02 | 0.00 | 89 | 1016.3 |
| 20260503044037 | 44 | 0 | 0.0 | 0.0 | 0.00 | 0.02 | 0.00 | 89 | 1016.3 |
| 20260503043538 | 44 | 0 | 0.0 | 0.0 | 0.00 | 0.02 | 0.00 | 89 | 1016.3 |
| 20260503043050 | 44 | 0 | 0.0 | 0.0 | 0.00 | 0.02 | 0.00 | 89 | 1016.2 |
| 20260503042538 | 44 | 0 | 0.0 | 0.0 | 0.00 | 0.02 | 0.00 | 89 | 1016.2 |
| 20260503042038 | 44 | 0 | 0.0 | 0.0 | 0.00 | 0.02 | 0.00 | 90 | 1016.1 |
| 20260503041551 | 44 | 0 | 0.0 | 0.0 | 0.00 | 0.02 | 0.00 | 90 | 1016.1 |
| 20260503041037 | 45 | 0 | 0.0 | 0.0 | 0.00 | 0.02 | 0.00 | 90 | 1016.0 |
| 20260503040537 | 45 | 0 | 0.0 | 0.0 | 0.00 | 0.02 | 0.00 | 90 | 1016.0 |
| 20260503040054 | 45 | 0 | 0.0 | 0.0 | 0.00 | 0.02 | 0.00 | 90 | 1016.1 |
| 20260503035538 | 45 | 0 | 0.0 | 0.0 | 0.00 | 0.02 | 0.02 | 90 | 1016.1 |
| 20260503035038 | 45 | 0 | 0.0 | 0.0 | 0.00 | 0.02 | 0.02 | 90 | 1016.1 |
| 20260503034553 | 45 | 0 | 0.0 | 0.0 | 0.00 | 0.02 | 0.02 | 90 | 1016.0 |
| 20260503034038 | 45 | 0 | 0.0 | 0.0 | 0.00 | 0.02 | 0.02 | 89 | 1015.9 |
| 20260503033540 | 45 | 0 | 0.0 | 0.0 | 0.00 | 0.02 | 0.02 | 89 | 1015.9 |
| 20260503033101 | 45 | 0 | 0.0 | 0.0 | 0.00 | 0.02 | 0.02 | 89 | 1015.8 |
| 20260503032537 | 45 | 0 | 0.0 | 0.0 | 0.00 | 0.02 | 0.02 | 89 | 1015.7 |
| 20260503032036 | 45 | 0 | 0.0 | 0.0 | 0.00 | 0.02 | 0.02 | 89 | 1015.6 |
| 20260503031556 | 45 | 0 | 0.0 | 0.0 | 0.00 | 0.02 | 0.02 | 89 | 1015.5 |
| 20260503031040 | 45 | 0 | 0.0 | 0.0 | 0.00 | 0.02 | 0.02 | 89 | 1015.5 |
| 20260503030543 | 45 | 0 | 0.0 | 0.0 | 0.00 | 0.02 | 0.02 | 88 | 1015.5 |
| 20260503030104 | 45 | 0 | 0.0 | 0.0 | 0.00 | 0.02 | 0.02 | 88 | 1015.4 |
| 20260503025537 | 46 | 0 | 0.0 | 0.0 | 0.00 | 0.02 | 0.02 | 88 | 1015.3 |
| 20260503025039 | 46 | 0 | 0.0 | 0.0 | 0.00 | 0.02 | 0.02 | 87 | 1015.3 |
| 20260503024607 | 46 | 0 | 0.0 | 0.0 | 0.00 | 0.02 | 0.02 | 87 | 1015.3 |
| 20260503024037 | 46 | 0 | 0.0 | 0.0 | 0.00 | 0.02 | 0.02 | 87 | 1015.2 |
| 20260503023538 | 46 | 0 | 0.0 | 0.0 | 0.00 | 0.02 | 0.02 | 87 | 1015.0 |
| 20260503023044 | 46 | 0 | 0.0 | 0.0 | 0.00 | 0.02 | 0.02 | 87 | 1015.1 |
| 20260503022536 | 46 | 0 | 0.0 | 0.0 | 0.00 | 0.02 | 0.02 | 87 | 1015.0 |
| 20260503022039 | 46 | 0 | 0.0 | 0.0 | 0.00 | 0.02 | 0.02 | 86 | 1015.0 |
| 20260503021556 | 47 | 0 | 0.0 | 0.0 | 0.00 | 0.02 | 0.02 | 86 | 1014.9 |
| 20260503021036 | 47 | 0 | 0.0 | 0.0 | 0.00 | 0.02 | 0.02 | 86 | 1014.8 |
| 20260503020537 | 47 | 0 | 0.0 | 0.0 | 0.00 | 0.02 | 0.02 | 86 | 1014.7 |
| 20260503020050 | 47 | 0 | 0.0 | 0.0 | 0.00 | 0.02 | 0.02 | 86 | 1014.7 |
| 20260503015537 | 47 | 0 | 0.0 | 0.0 | 0.00 | 0.02 | 0.02 | 85 | 1014.7 |
| 20260503015038 | 47 | 0 | 0.0 | 0.0 | 0.00 | 0.02 | 0.02 | 85 | 1014.7 |
| 20260503014547 | 47 | 0 | 0.0 | 0.0 | 0.00 | 0.02 | 0.02 | 85 | 1014.7 |
| 20260503014037 | 48 | 0 | 0.0 | 0.0 | 0.00 | 0.02 | 0.02 | 84 | 1014.7 |
| 20260503013537 | 48 | 0 | 0.0 | 0.0 | 0.00 | 0.02 | 0.02 | 84 | 1014.5 |
| 20260503013046 | 48 | 0 | 0.0 | 0.0 | 0.00 | 0.02 | 0.02 | 83 | 1014.5 |
| 20260503012540 | 48 | 0 | 0.0 | 0.0 | 0.00 | 0.02 | 0.02 | 83 | 1014.5 |
| 20260503012037 | 48 | 0 | 0.0 | 0.0 | 0.00 | 0.02 | 0.02 | 82 | 1014.3 |
| 20260503011546 | 48 | 0 | 0.0 | 0.0 | 0.00 | 0.02 | 0.02 | 82 | 1014.3 |
| 20260503011038 | 49 | 0 | 0.0 | 0.9 | 0.00 | 0.02 | 0.02 | 81 | 1014.2 |
| 20260503010537 | 49 | 0 | 0.0 | 0.9 | 0.00 | 0.02 | 0.02 | 80 | 1014.3 |
| 20260503010045 | 49 | 0 | 0.0 | 0.9 | 0.00 | 0.02 | 0.02 | 80 | 1014.2 |
| 20260503005538 | 50 | 0 | 0.0 | 0.0 | 0.00 | 0.02 | 0.02 | 79 | 1014.0 |
| 20260503005038 | 50 | 0 | 0.0 | 0.0 | 0.00 | 0.02 | 0.02 | 78 | 1013.8 |
| 20260503004545 | 50 | 0 | 0.0 | 0.0 | 0.00 | 0.02 | 0.02 | 77 | 1013.7 |
| 20260503004037 | 51 | 0 | 0.0 | 0.0 | 0.00 | 0.02 | 0.02 | 76 | 1013.6 |
| 20260503003540 | 51 | 0 | 0.0 | 0.0 | 0.00 | 0.02 | 0.02 | 75 | 1013.5 |
| 20260503003049 | 52 | 0 | 0.0 | 0.0 | 0.00 | 0.02 | 0.02 | 75 | 1013.4 |
| 20260503002537 | 52 | 0 | 0.0 | 0.0 | 0.00 | 0.02 | 0.02 | 74 | 1013.3 |
| 20260503002037 | 53 | 0 | 0.0 | 0.0 | 0.00 | 0.02 | 0.02 | 74 | 1013.2 |
| 20260503001557 | 53 | 0 | 0.0 | 0.0 | 0.00 | 0.02 | 0.02 | 73 | 1013.1 |
| 20260503001037 | 53 | 0 | 0.0 | 0.0 | 0.00 | 0.02 | 0.02 | 72 | 1013.0 |
| 20260503000537 | 54 | 0 | 0.0 | 0.0 | 0.00 | 0.02 | 0.02 | 72 | 1013.1 |
| 20260503000058 | 54 | 0 | 0.0 | 0.0 | 0.00 | 0.02 | 0.02 | 71 | 1012.9 |
| 20260502235536 | 55 | 0 | 0.0 | 0.0 | 0.00 | 0.02 | 0.02 | 71 | 1012.9 |
| 20260502235036 | 55 | 0 | 0.0 | 0.0 | 0.00 | 0.02 | 0.02 | 71 | 1012.8 |
| 20260502234543 | 56 | 0 | 0.0 | 0.0 | 0.00 | 0.02 | 0.02 | 70 | 1012.8 |
| 20260502234041 | 56 | 0 | 0.0 | 0.0 | 0.00 | 0.02 | 0.02 | 70 | 1012.7 |
| 20260502233541 | 57 | 0 | 0.0 | 0.0 | 0.00 | 0.02 | 0.02 | 69 | 1012.7 |
| 20260502233058 | 57 | 0 | 0.0 | 0.0 | 0.00 | 0.02 | 0.02 | 68 | 1012.5 |
| 20260502232540 | 58 | 0 | 0.0 | 0.9 | 0.00 | 0.02 | 0.02 | 66 | 1012.5 |
| 20260502232036 | 58 | 0 | 0.0 | 0.9 | 0.00 | 0.02 | 0.02 | 66 | 1012.6 |
| 20260502231602 | 58 | 0 | 0.0 | 0.9 | 0.00 | 0.02 | 0.02 | 67 | 1012.7 |
| 20260502231041 | 59 | 306 | 0.0 | 0.0 | 0.00 | 0.02 | 0.02 | 67 | 1012.7 |
| 20260502230539 | 59 | 0 | 0.0 | 0.0 | 0.00 | 0.02 | 0.02 | 68 | 1012.5 |
| 20260502230042 | 59 | 0 | 0.0 | 0.0 | 0.00 | 0.02 | 0.02 | 68 | 1012.4 |
| 20260502225539 | 59 | 0 | 0.0 | 0.0 | 0.00 | 0.02 | 0.02 | 68 | 1012.4 |
| 20260502225037 | 59 | 0 | 0.0 | 0.0 | 0.00 | 0.02 | 0.02 | 67 | 1012.5 |
| 20260502224551 | 59 | 0 | 0.0 | 0.0 | 0.00 | 0.02 | 0.02 | 67 | 1012.5 |
| 20260502224037 | 59 | 0 | 0.0 | 0.9 | 0.00 | 0.02 | 0.02 | 65 | 1012.5 |
| 20260502223537 | 60 | 0 | 0.0 | 0.9 | 0.00 | 0.02 | 0.02 | 65 | 1012.5 |
| 20260502223051 | 60 | 0 | 0.0 | 0.9 | 0.00 | 0.02 | 0.02 | 65 | 1012.6 |
| 20260502222538 | 60 | 0 | 0.0 | 0.9 | 0.00 | 0.02 | 0.02 | 66 | 1012.6 |
| 20260502222038 | 60 | 0 | 0.0 | 0.9 | 0.00 | 0.02 | 0.02 | 62 | 1012.5 |
| 20260502221603 | 60 | 0 | 0.0 | 2.6 | 0.00 | 0.02 | 0.02 | 65 | 1012.4 |
| 20260502221040 | 60 | 0 | 0.0 | 2.6 | 0.00 | 0.02 | 0.02 | 58 | 1012.5 |
| 20260502220541 | 60 | 291 | 0.0 | 2.6 | 0.00 | 0.02 | 0.02 | 61 | 1012.4 |
| 20260502220051 | 60 | 0 | 0.0 | 0.9 | 0.00 | 0.02 | 0.02 | 60 | 1012.4 |
| 20260502215540 | 60 | 0 | 0.0 | 0.9 | 0.00 | 0.02 | 0.02 | 61 | 1012.3 |
| 20260502215044 | 60 | 0 | 0.0 | 1.7 | 0.00 | 0.02 | 0.02 | 61 | 1012.4 |
| 20260502214604 | 60 | 0 | 0.0 | 1.7 | 0.00 | 0.02 | 0.02 | 60 | 1012.3 |
| 20260502214037 | 60 | 276 | 0.0 | 1.7 | 0.00 | 0.02 | 0.02 | 61 | 1012.3 |
| 20260502213536 | 60 | 0 | 0.0 | 3.5 | 0.00 | 0.02 | 0.02 | 59 | 1012.2 |
| 20260502213056 | 60 | 0 | 0.0 | 3.5 | 0.00 | 0.02 | 0.02 | 55 | 1012.2 |
| 20260502212540 | 60 | 326 | 0.9 | 3.5 | 0.00 | 0.02 | 0.02 | 56 | 1012.2 |
| 20260502212042 | 60 | 0 | 0.0 | 5.2 | 0.00 | 0.02 | 0.02 | 56 | 1012.1 |
| 20260502211549 | 59 | 0 | 0.9 | 5.2 | 0.00 | 0.02 | 0.02 | 55 | 1012.2 |
| 20260502211040 | 59 | 352 | 0.9 | 5.2 | 0.00 | 0.02 | 0.02 | 53 | 1012.2 |
| 20260502210538 | 59 | 0 | 0.9 | 3.5 | 0.00 | 0.02 | 0.02 | 55 | 1012.2 |
| 20260502210046 | 59 | 0 | 0.0 | 4.3 | 0.00 | 0.02 | 0.02 | 56 | 1012.2 |
| 20260502205538 | 59 | 319 | 1.7 | 4.3 | 0.00 | 0.02 | 0.02 | 56 | 1012.2 |
| 20260502205039 | 59 | 340 | 0.0 | 1.7 | 0.00 | 0.02 | 0.02 | 60 | 1012.2 |
| 20260502204550 | 59 | 0 | 0.0 | 1.7 | 0.00 | 0.02 | 0.02 | 62 | 1012.3 |
| 20260502204041 | 59 | 0 | 0.0 | 1.7 | 0.00 | 0.02 | 0.02 | 68 | 1012.3 |
| 20260502203539 | 59 | 0 | 0.0 | 1.7 | 0.00 | 0.02 | 0.02 | 67 | 1012.2 |
| 20260502203055 | 59 | 0 | 0.0 | 2.6 | 0.00 | 0.02 | 0.02 | 67 | 1012.2 |
| 20260502202537 | 59 | 0 | 0.0 | 2.6 | 0.00 | 0.02 | 0.02 | 66 | 1012.5 |
| 20260502202037 | 59 | 0 | 0.0 | 2.6 | 0.00 | 0.02 | 0.02 | 67 | 1012.4 |
| 20260502201548 | 59 | 0 | 0.0 | 2.6 | 0.00 | 0.02 | 0.02 | 64 | 1012.4 |
| 20260502201037 | 58 | 0 | 0.0 | 2.6 | 0.00 | 0.02 | 0.02 | 64 | 1012.4 |
| 20260502200537 | 58 | 0 | 0.9 | 2.6 | 0.00 | 0.02 | 0.02 | 60 | 1012.5 |
| 20260502200048 | 58 | 0 | 0.0 | 3.5 | 0.00 | 0.02 | 0.02 | 61 | 1012.6 |
| 20260502195538 | 58 | 0 | 0.9 | 3.5 | 0.00 | 0.02 | 0.02 | 61 | 1012.6 |
| 20260502195038 | 59 | 285 | 0.9 | 3.5 | 0.00 | 0.02 | 0.02 | 63 | 1012.6 |
| 20260502194547 | 59 | 240 | 0.9 | 6.1 | 0.00 | 0.02 | 0.02 | 66 | 1012.7 |
| 20260502194037 | 59 | 299 | 1.7 | 6.1 | 0.00 | 0.02 | 0.02 | 64 | 1012.7 |
| 20260502193537 | 59 | 0 | 0.0 | 3.5 | 0.00 | 0.02 | 0.02 | 67 | 1012.7 |
| 20260502193050 | 58 | 0 | 0.9 | 4.3 | 0.00 | 0.02 | 0.02 | 66 | 1012.8 |
| 20260502192537 | 58 | 338 | 0.9 | 4.3 | 0.00 | 0.02 | 0.02 | 67 | 1012.9 |
| 20260502192037 | 58 | 301 | 0.9 | 4.3 | 0.01 | 0.02 | 0.02 | 68 | 1012.9 |
| 20260502191547 | 58 | 0 | 0.0 | 5.2 | 0.01 | 0.02 | 0.02 | 70 | 1013.0 |
| 20260502191037 | 58 | 0 | 0.9 | 5.2 | 0.01 | 0.02 | 0.02 | 69 | 1013.1 |
| 20260502190537 | 58 | 0 | 0.9 | 5.2 | 0.01 | 0.02 | 0.02 | 67 | 1013.0 |
| 20260502190052 | 57 | 359 | 0.0 | 3.5 | 0.01 | 0.02 | 0.02 | 72 | 1013.0 |